Time;durP1;ratioP1;P1;durP2;ratioP2;P2;SDS_P1;SDS_P2;PMS_P1;PMS_P2;Temp;Humidity;BMP_temperature;BMP_pressure;BME280_temperature;BME280_humidity;BME280_pressure;Samples;Min_cycle;Max_cycle;Signal;HPM_P1;HPM_P2
2022/03/29 00:00:55;;;;;;;16.50;12.10;;;25.40;93.30;;;;;;1806536;77;21129;-84
2022/03/29 00:03:26;;;;;;;18.67;12.82;;;25.40;93.40;;;;;;1801571;78;21171;-84
2022/03/29 00:05:57;;;;;;;16.65;13.43;;;25.40;93.40;;;;;;1804674;78;21159;-83
2022/03/29 00:08:28;;;;;;;18.70;13.08;;;25.40;93.50;;;;;;1801760;78;21583;-83
2022/03/29 00:10:59;;;;;;;19.37;13.28;;;25.40;93.40;;;;;;1806419;78;21191;-82
2022/03/29 00:13:31;;;;;;;19.55;13.78;;;25.40;93.60;;;;;;1807362;78;21104;-83
2022/03/29 00:16:01;;;;;;;22.85;14.75;;;25.40;93.70;;;;;;1799429;78;21644;-84
2022/03/29 00:18:48;;;;;;;18.75;14.45;;;25.40;93.70;;;;;;1808017;78;21141;-84
2022/03/29 00:21:19;;;;;;;20.60;14.65;;;25.40;93.70;;;;;;1759870;79;21642;-85
2022/03/29 00:23:50;;;;;;;18.55;14.63;;;25.40;93.60;;;;;;1799478;78;21233;-84
2022/03/29 00:26:21;;;;;;;21.23;13.95;;;25.40;93.60;;;;;;1803173;78;21217;-84
2022/03/29 00:28:52;;;;;;;18.17;13.90;;;25.40;93.70;;;;;;1802750;78;21112;-84
2022/03/29 00:31:23;;;;;;;18.60;13.62;;;25.50;93.50;;;;;;1802014;78;21121;-85
2022/03/29 00:33:53;;;;;;;21.35;14.60;;;25.50;93.60;;;;;;1807569;78;21223;-85
2022/03/29 00:36:24;;;;;;;26.02;17.10;;;25.50;93.60;;;;;;1807675;78;21150;-84
2022/03/29 00:38:55;;;;;;;26.35;16.52;;;25.50;93.50;;;;;;1797452;78;21162;-84
2022/03/29 00:41:25;;;;;;;20.37;14.50;;;25.50;93.60;;;;;;1807555;78;21160;-85
2022/03/29 00:43:56;;;;;;;17.42;14.07;;;25.50;93.60;;;;;;1803203;78;21174;-83
2022/03/29 00:46:27;;;;;;;19.92;14.73;;;25.50;93.60;;;;;;1803416;79;21524;-84
2022/03/29 00:48:57;;;;;;;18.75;14.18;;;25.50;93.60;;;;;;1793508;79;21147;-83
2022/03/29 00:51:28;;;;;;;18.90;13.60;;;25.60;93.70;;;;;;1808487;78;21659;-84
2022/03/29 00:53:59;;;;;;;19.52;14.15;;;25.50;93.50;;;;;;1798867;79;21692;-84
2022/03/29 00:56:30;;;;;;;17.77;13.88;;;25.60;93.50;;;;;;1801587;78;21157;-85
2022/03/29 00:59:01;;;;;;;18.42;14.75;;;25.60;93.60;;;;;;1798112;79;21162;-84
2022/03/29 01:01:32;;;;;;;21.70;14.47;;;25.70;93.80;;;;;;1808845;78;21676;-83
2022/03/29 01:04:04;;;;;;;21.52;15.00;;;25.70;93.50;;;;;;1807206;78;21492;-84
2022/03/29 01:06:38;;;;;;;23.85;15.80;;;25.70;93.80;;;;;;1803586;78;21284;-84
2022/03/29 01:09:08;;;;;;;21.70;14.30;;;25.80;93.80;;;;;;1798751;78;21229;-84
2022/03/29 01:11:40;;;;;;;19.92;14.78;;;25.70;93.70;;;;;;1798301;78;21154;-84
2022/03/29 01:14:11;;;;;;;19.80;15.00;;;25.70;93.60;;;;;;1773366;79;21207;-84
2022/03/29 01:19:15;;;;;;;20.12;15.30;;;25.80;93.60;;;;;;1800916;77;21869;-85
2022/03/29 01:21:49;;;;;;;23.73;15.08;;;25.80;93.60;;;;;;1801885;78;21185;-83
2022/03/29 01:24:22;;;;;;;20.60;13.75;;;25.80;93.50;;;;;;1807646;77;21630;-84
2022/03/29 01:26:55;;;;;;;19.70;14.13;;;25.80;93.30;;;;;;1806548;78;21170;-84
2022/03/29 01:29:27;;;;;;;19.67;14.80;;;25.90;93.40;;;;;;1798801;78;21540;-84
2022/03/29 01:31:59;;;;;;;19.80;14.53;;;25.90;93.30;;;;;;1800080;78;21184;-84
2022/03/29 01:34:31;;;;;;;19.65;14.43;;;25.90;93.40;;;;;;1807311;78;21186;-81
2022/03/29 01:37:03;;;;;;;19.23;14.68;;;25.90;93.40;;;;;;1773715;79;21176;-81
2022/03/29 01:39:35;;;;;;;17.60;13.55;;;25.90;93.50;;;;;;1797767;78;21143;-81
2022/03/29 01:42:08;;;;;;;16.37;13.08;;;25.90;93.50;;;;;;1803343;78;22565;-83
2022/03/29 01:44:39;;;;;;;17.87;13.95;;;26.00;93.40;;;;;;1803691;78;22194;-80
2022/03/29 01:47:10;;;;;;;16.40;13.55;;;26.00;93.20;;;;;;1801999;78;21092;-79
2022/03/29 01:49:41;;;;;;;17.30;13.90;;;26.00;93.20;;;;;;1801788;78;21137;-80
2022/03/29 01:52:12;;;;;;;17.23;14.03;;;26.00;93.70;;;;;;1804609;78;21139;-81
2022/03/29 01:54:43;;;;;;;20.17;14.50;;;26.00;93.40;;;;;;1803805;78;21158;-80
2022/03/29 01:57:14;;;;;;;16.27;13.30;;;26.00;93.40;;;;;;1804954;78;21213;-81
2022/03/29 02:02:18;;;;;;;35.48;15.18;;;26.00;93.30;;;;;;1804482;78;21230;-71
2022/03/29 02:04:49;;;;;;;40.17;15.60;;;26.00;93.30;;;;;;1810032;78;21143;-72
2022/03/29 02:07:23;;;;;;;22.70;14.25;;;26.00;93.30;;;;;;1804866;79;21101;-71
2022/03/29 02:09:54;;;;;;;20.72;13.58;;;26.10;93.20;;;;;;1805500;79;21639;-72
2022/03/29 02:12:24;;;;;;;20.08;13.78;;;26.10;93.30;;;;;;1803297;78;21895;-72
2022/03/29 02:14:55;;;;;;;18.42;13.93;;;26.20;93.10;;;;;;1805639;78;21642;-73
2022/03/29 02:17:26;;;;;;;17.32;13.90;;;26.20;93.00;;;;;;1802295;78;21701;-73
2022/03/29 02:19:57;;;;;;;21.25;13.98;;;26.20;92.80;;;;;;1799514;78;21536;-73
2022/03/29 02:22:28;;;;;;;19.98;13.75;;;26.20;92.70;;;;;;1797974;78;21685;-73
2022/03/29 02:24:59;;;;;;;18.95;13.32;;;26.30;92.70;;;;;;1799351;78;21893;-73
2022/03/29 02:27:30;;;;;;;18.17;13.90;;;26.20;92.80;;;;;;1805188;78;21143;-73
2022/03/29 02:30:01;;;;;;;18.20;13.38;;;26.30;92.90;;;;;;1802659;78;21665;-73
2022/03/29 02:32:32;;;;;;;18.07;13.50;;;26.30;92.90;;;;;;1801905;79;21705;-74
2022/03/29 02:35:03;;;;;;;19.67;14.07;;;26.40;93.00;;;;;;1803552;78;21137;-73
2022/03/29 02:37:34;;;;;;;19.50;13.25;;;26.40;93.20;;;;;;1798753;78;21586;-72
2022/03/29 02:40:06;;;;;;;19.50;14.10;;;26.40;93.20;;;;;;1805253;78;21065;-73
2022/03/29 02:42:40;;;;;;;16.35;13.90;;;26.50;93.30;;;;;;1810466;79;21206;-73
2022/03/29 02:45:14;;;;;;;21.95;14.07;;;26.60;93.00;;;;;;1804560;78;21214;-72
2022/03/29 02:47:48;;;;;;;18.12;13.20;;;26.80;93.10;;;;;;1800984;78;21202;-74
2022/03/29 02:50:24;;;;;;;18.00;13.88;;;26.80;93.10;;;;;;1802162;79;21358;-73
2022/03/29 02:52:57;;;;;;;20.75;13.90;;;26.90;92.60;;;;;;1806398;79;21100;-73
2022/03/29 02:55:31;;;;;;;20.35;13.32;;;26.90;92.70;;;;;;1804928;79;22230;-73
2022/03/29 02:58:01;;;;;;;18.32;13.03;;;26.90;92.80;;;;;;1803237;78;21180;-74
2022/03/29 03:00:33;;;;;;;16.85;12.05;;;26.90;92.60;;;;;;1802279;78;22072;-73
2022/03/29 03:03:04;;;;;;;17.95;13.35;;;27.00;92.60;;;;;;1799894;77;21256;-73
2022/03/29 03:05:35;;;;;;;16.80;11.97;;;27.00;92.60;;;;;;1804351;78;21588;-72
2022/03/29 03:08:06;;;;;;;18.12;13.55;;;27.00;92.50;;;;;;1803116;79;21217;-73
2022/03/29 03:10:37;;;;;;;22.95;13.08;;;26.90;92.50;;;;;;1801887;78;21194;-73
2022/03/29 03:13:08;;;;;;;18.80;13.38;;;27.00;92.70;;;;;;1806453;78;21209;-72
2022/03/29 03:15:38;;;;;;;16.82;12.55;;;27.10;92.50;;;;;;1800646;79;21829;-73
2022/03/29 03:18:09;;;;;;;17.05;12.40;;;27.10;92.40;;;;;;1777410;80;21637;-73
2022/03/29 03:20:41;;;;;;;17.87;13.32;;;27.20;92.20;;;;;;1741780;81;21721;-70
2022/03/29 03:23:12;;;;;;;19.85;12.85;;;27.20;92.10;;;;;;1768406;79;21215;-72
2022/03/29 03:25:43;;;;;;;19.30;13.58;;;27.10;92.00;;;;;;1772350;79;21181;-72
2022/03/29 03:28:13;;;;;;;19.17;13.13;;;27.00;92.10;;;;;;1772141;79;21412;-71
2022/03/29 03:30:44;;;;;;;16.85;12.30;;;27.00;92.10;;;;;;1778196;79;21184;-71
2022/03/29 03:33:15;;;;;;;16.40;11.80;;;27.10;92.30;;;;;;1777684;79;21166;-70
2022/03/29 03:35:46;;;;;;;16.35;11.65;;;27.10;91.90;;;;;;1769437;79;21243;-73
2022/03/29 03:38:17;;;;;;;15.35;11.03;;;27.10;92.10;;;;;;1776521;79;21079;-73
2022/03/29 03:40:47;;;;;;;17.77;9.95;;;27.10;92.40;;;;;;1808803;77;21132;-73
2022/03/29 03:43:21;;;;;;;13.53;9.50;;;27.20;92.40;;;;;;1804140;79;21187;-73
2022/03/29 03:45:51;;;;;;;13.03;9.73;;;27.30;92.10;;;;;;1807509;78;21139;-71
2022/03/29 03:48:23;;;;;;;13.78;9.80;;;27.30;91.90;;;;;;1806858;78;21625;-71
2022/03/29 03:50:54;;;;;;;11.50;9.43;;;27.30;91.50;;;;;;1807238;78;21273;-71
2022/03/29 03:53:25;;;;;;;12.82;9.38;;;27.30;91.60;;;;;;1796085;79;21191;-72
2022/03/29 03:55:56;;;;;;;12.78;9.73;;;27.20;92.10;;;;;;1799824;78;21611;-72
2022/03/29 03:58:27;;;;;;;16.93;10.25;;;27.20;91.50;;;;;;1802756;79;21200;-71
2022/03/29 04:00:57;;;;;;;16.30;10.40;;;27.20;91.50;;;;;;1794827;79;21250;-71
2022/03/29 04:03:29;;;;;;;15.60;9.13;;;27.20;91.40;;;;;;1770103;80;21197;-72
2022/03/29 04:05:59;;;;;;;14.30;9.88;;;27.10;91.40;;;;;;1796695;77;21210;-72
2022/03/29 04:08:30;;;;;;;13.72;9.15;;;27.10;91.50;;;;;;1809904;78;21691;-71
2022/03/29 04:11:02;;;;;;;14.05;10.08;;;27.20;91.90;;;;;;1805520;78;21135;-71
2022/03/29 04:13:34;;;;;;;15.98;11.10;;;27.20;91.50;;;;;;1807739;78;21147;-71
2022/03/29 04:16:06;;;;;;;14.68;10.38;;;27.20;91.20;;;;;;1809822;78;21177;-71
2022/03/29 04:18:36;;;;;;;20.55;10.80;;;27.20;91.20;;;;;;1802370;78;21218;-70
2022/03/29 04:21:11;;;;;;;17.52;9.95;;;27.20;91.20;;;;;;1793325;79;21237;-71
2022/03/29 04:23:44;;;;;;;16.73;11.03;;;27.20;91.30;;;;;;1798499;78;21528;-72
2022/03/29 04:26:14;;;;;;;15.98;10.40;;;27.20;91.20;;;;;;1803325;78;21288;-72
2022/03/29 04:28:45;;;;;;;14.23;10.72;;;27.20;91.20;;;;;;1796646;78;21618;-71
2022/03/29 04:31:16;;;;;;;14.15;9.93;;;27.20;91.20;;;;;;1806312;78;21635;-72
2022/03/29 04:33:47;;;;;;;15.75;11.18;;;27.20;91.20;;;;;;1804391;78;21655;-72
2022/03/29 04:36:18;;;;;;;15.15;10.53;;;27.20;91.20;;;;;;1800882;79;21570;-71
2022/03/29 04:38:48;;;;;;;17.77;10.93;;;27.30;91.00;;;;;;1807664;78;21566;-72
2022/03/29 04:41:21;;;;;;;13.15;10.48;;;27.30;91.00;;;;;;1823970;78;21587;-72
2022/03/29 04:43:54;;;;;;;13.10;10.03;;;27.30;90.80;;;;;;1807031;78;21222;-71
2022/03/29 04:46:25;;;;;;;15.30;9.93;;;27.30;90.80;;;;;;1801745;78;21559;-81
2022/03/29 04:48:56;;;;;;;12.75;9.20;;;27.30;90.70;;;;;;1799028;78;21153;-80
2022/03/29 04:51:28;;;;;;;12.50;8.43;;;27.30;90.60;;;;;;1798886;78;21134;-83
2022/03/29 04:53:59;;;;;;;11.25;8.63;;;27.30;90.70;;;;;;1766705;80;21115;-81
2022/03/29 04:56:30;;;;;;;13.18;8.25;;;27.30;90.90;;;;;;1798539;79;21143;-81
2022/03/29 04:59:01;;;;;;;16.02;8.65;;;27.40;91.00;;;;;;1792024;79;21597;-80
2022/03/29 05:01:32;;;;;;;12.68;8.48;;;27.60;90.70;;;;;;1796120;78;21149;-82
2022/03/29 05:04:05;;;;;;;11.93;8.80;;;27.80;90.30;;;;;;1787945;79;21119;-80
2022/03/29 05:06:36;;;;;;;10.48;8.30;;;28.10;89.50;;;;;;1752958;80;21217;-82
2022/03/29 05:09:07;;;;;;;12.10;7.55;;;28.20;89.50;;;;;;1799648;79;21678;-81
2022/03/29 05:11:38;;;;;;;10.53;7.70;;;28.30;88.70;;;;;;1793214;79;21670;-81
2022/03/29 05:14:09;;;;;;;12.00;8.78;;;28.30;88.80;;;;;;1796227;78;21681;-72
2022/03/29 05:16:40;;;;;;;11.97;8.18;;;28.30;88.70;;;;;;1764116;80;21689;-73
2022/03/29 05:19:11;;;;;;;9.83;7.17;;;28.40;86.90;;;;;;1792106;78;21192;-72
2022/03/29 05:21:44;;;;;;;9.65;7.33;;;28.50;87.50;;;;;;1808440;78;21646;-72
2022/03/29 05:24:15;;;;;;;12.55;7.10;;;28.60;87.30;;;;;;1800975;79;21131;-72
2022/03/29 05:26:46;;;;;;;13.50;7.37;;;28.70;86.40;;;;;;1767037;79;21159;-72
2022/03/29 05:29:18;;;;;;;10.28;6.65;;;28.90;84.90;;;;;;1729698;82;21206;-72
2022/03/29 05:31:49;;;;;;;9.38;6.22;;;29.10;84.10;;;;;;1806215;79;21206;-73
2022/03/29 05:34:20;;;;;;;10.00;5.60;;;29.20;83.90;;;;;;1805225;79;21241;-73
2022/03/29 05:36:51;;;;;;;6.72;5.17;;;29.20;83.70;;;;;;1806336;78;21195;-72
2022/03/29 05:39:21;;;;;;;6.65;5.10;;;29.30;82.20;;;;;;1804220;78;21640;-72
2022/03/29 05:41:52;;;;;;;7.45;5.55;;;29.30;81.90;;;;;;1808918;79;21103;-73
2022/03/29 05:44:23;;;;;;;7.55;5.40;;;29.30;81.70;;;;;;1796399;79;21213;-74
2022/03/29 05:49:27;;;;;;;5.47;4.30;;;29.30;82.70;;;;;;1799675;78;21199;-72
2022/03/29 05:51:58;;;;;;;5.85;5.05;;;29.20;83.60;;;;;;1799776;78;21123;-72
2022/03/29 05:54:30;;;;;;;5.33;4.55;;;29.10;84.60;;;;;;1802688;78;21155;-75
2022/03/29 05:57:01;;;;;;;7.05;4.62;;;29.10;85.20;;;;;;1797497;78;21793;-73
2022/03/29 05:59:31;;;;;;;6.92;4.55;;;29.10;85.00;;;;;;1803846;79;21163;-72
2022/03/29 06:02:04;;;;;;;7.33;4.67;;;29.10;84.00;;;;;;1790689;78;21886;-71
2022/03/29 06:04:36;;;;;;;5.70;4.78;;;29.10;84.70;;;;;;1806176;79;21117;-73
2022/03/29 06:07:07;;;;;;;7.80;5.58;;;29.20;84.60;;;;;;1802523;78;21147;-72
2022/03/29 06:09:40;;;;;;;7.17;5.00;;;29.30;84.80;;;;;;1795038;78;21162;-73
2022/03/29 06:12:11;;;;;;;7.90;5.08;;;29.30;83.80;;;;;;1802473;78;21191;-72
2022/03/29 06:14:42;;;;;;;6.90;5.10;;;29.40;83.90;;;;;;1801579;79;21708;-73
2022/03/29 06:17:12;;;;;;;5.35;4.45;;;29.50;83.40;;;;;;1800694;78;22343;-73
2022/03/29 06:19:45;;;;;;;6.80;4.87;;;29.60;83.80;;;;;;1795273;78;21249;-72
2022/03/29 06:22:16;;;;;;;6.00;4.22;;;29.70;83.10;;;;;;1801733;78;21532;-72
2022/03/29 06:24:48;;;;;;;7.15;4.78;;;29.80;84.00;;;;;;1812519;78;21622;-72
2022/03/29 06:27:18;;;;;;;7.50;5.03;;;29.80;84.10;;;;;;1808164;78;21189;-73
2022/03/29 06:29:49;;;;;;;5.15;4.50;;;29.80;83.60;;;;;;1809341;77;21118;-73
2022/03/29 06:32:20;;;;;;;5.85;4.78;;;29.70;83.50;;;;;;1813706;77;21147;-76
2022/03/29 06:34:51;;;;;;;7.58;4.97;;;29.60;82.80;;;;;;1810645;77;21166;-73
2022/03/29 06:37:22;;;;;;;6.62;5.05;;;29.50;83.90;;;;;;1776899;79;21195;-72
2022/03/29 06:39:53;;;;;;;6.72;4.92;;;29.60;85.10;;;;;;1810725;78;21676;-74
2022/03/29 06:42:24;;;;;;;7.35;5.03;;;29.70;84.90;;;;;;1809027;78;21143;-73
2022/03/29 06:44:55;;;;;;;6.67;5.03;;;29.80;85.10;;;;;;1806227;78;21138;-73
2022/03/29 06:47:25;;;;;;;6.78;5.37;;;29.80;85.30;;;;;;1824839;77;21135;-74
2022/03/29 06:49:57;;;;;;;6.75;5.47;;;29.80;85.00;;;;;;1812104;77;21702;-73
2022/03/29 06:52:29;;;;;;;8.08;5.05;;;29.90;84.10;;;;;;1806430;79;21217;-73
2022/03/29 06:55:03;;;;;;;9.33;5.40;;;29.90;84.20;;;;;;1810676;78;21209;-72
2022/03/29 06:57:34;;;;;;;9.43;5.87;;;30.00;83.00;;;;;;1815365;78;21665;-71
2022/03/29 07:00:09;;;;;;;6.75;5.45;;;30.00;82.90;;;;;;1806991;78;21173;-73
2022/03/29 07:02:40;;;;;;;8.25;5.53;;;29.90;82.40;;;;;;1812619;78;21171;-73
2022/03/29 07:05:11;;;;;;;7.33;5.28;;;29.90;83.10;;;;;;1807532;78;21218;-71
2022/03/29 07:07:43;;;;;;;7.15;5.33;;;29.80;81.10;;;;;;1806225;78;21191;-72
2022/03/29 07:12:48;;;;;;;9.75;5.72;;;29.70;78.70;;;;;;1815622;78;21669;-73
2022/03/29 07:15:19;;;;;;;8.38;5.83;;;29.60;79.60;;;;;;1810033;78;21635;-74
2022/03/29 07:17:50;;;;;;;7.62;5.70;;;29.60;80.30;;;;;;1810662;77;21516;-73
2022/03/29 07:20:22;;;;;;;7.30;5.83;;;29.70;80.30;;;;;;1828531;78;21155;-73
2022/03/29 07:22:53;;;;;;;7.83;5.40;;;29.70;80.40;;;;;;1825427;77;21555;-74
2022/03/29 07:25:27;;;;;;;7.45;5.75;;;29.80;80.40;;;;;;1816702;78;21175;-74
2022/03/29 07:27:57;;;;;;;7.33;5.78;;;29.80;79.10;;;;;;1814539;78;21198;-74
2022/03/29 07:30:28;;;;;;;7.97;6.15;;;29.80;80.60;;;;;;1820246;78;21132;-72
2022/03/29 07:33:00;;;;;;;8.18;5.78;;;29.80;80.60;;;;;;1800032;78;21772;-73
2022/03/29 07:35:32;;;;;;;7.20;5.92;;;29.70;79.70;;;;;;1805703;78;21151;-73
2022/03/29 07:38:04;;;;;;;7.17;6.05;;;29.70;80.70;;;;;;1819771;78;21225;-72
2022/03/29 07:40:35;;;;;;;7.53;5.75;;;29.70;81.00;;;;;;1810748;78;21147;-72
2022/03/29 07:43:08;;;;;;;7.42;6.55;;;29.70;80.60;;;;;;1808303;78;21218;-72
2022/03/29 07:45:40;;;;;;;6.90;6.20;;;29.70;81.30;;;;;;1807730;78;21143;-72
2022/03/29 07:48:11;;;;;;;7.37;6.05;;;29.70;80.90;;;;;;1808085;78;21144;-72
2022/03/29 07:50:43;;;;;;;11.70;5.83;;;29.70;80.70;;;;;;1787820;79;21164;-73
2022/03/29 07:53:14;;;;;;;8.13;6.37;;;29.80;81.40;;;;;;1775146;79;21159;-72
2022/03/29 07:55:45;;;;;;;8.18;6.70;;;29.80;80.40;;;;;;1813686;78;21158;-74
2022/03/29 07:58:19;;;;;;;9.95;6.65;;;29.80;80.70;;;;;;1822125;78;21134;-73
2022/03/29 08:00:53;;;;;;;11.00;6.58;;;29.80;81.20;;;;;;1821215;78;21718;-74
2022/03/29 08:03:27;;;;;;;9.03;6.72;;;29.80;80.80;;;;;;1805017;78;21643;-73
2022/03/29 08:05:57;;;;;;;9.65;6.85;;;29.80;82.00;;;;;;1813633;77;21163;-73
2022/03/29 08:08:29;;;;;;;7.97;6.65;;;29.80;82.10;;;;;;1825046;78;21559;-72
2022/03/29 08:11:00;;;;;;;9.80;6.92;;;29.80;82.00;;;;;;1786636;79;21076;-72
2022/03/29 08:13:31;;;;;;;10.10;6.53;;;29.80;80.40;;;;;;1817246;78;21194;-72
2022/03/29 08:16:02;;;;;;;8.05;5.83;;;29.80;80.40;;;;;;1768820;79;21195;-71
2022/03/29 08:18:36;;;;;;;11.22;7.35;;;29.80;81.20;;;;;;1776079;79;21187;-71
2022/03/29 08:21:49;;;;;;;7.90;7.00;;;29.80;82.30;;;;;;1778002;79;21643;-72
2022/03/29 08:23:40;;;;;;;7.80;6.50;;;29.80;83.30;;;;;;1779805;78;21228;-73
2022/03/29 08:26:11;;;;;;;7.30;6.25;;;29.80;81.80;;;;;;1835872;77;21547;-72
2022/03/29 08:28:42;;;;;;;10.93;7.03;;;29.80;81.30;;;;;;1839429;77;21610;-71
2022/03/29 08:31:14;;;;;;;9.75;7.05;;;29.90;81.20;;;;;;1834901;77;21146;-72
2022/03/29 08:33:45;;;;;;;8.75;6.90;;;29.90;81.20;;;;;;1838405;77;21985;-73
2022/03/29 08:36:16;;;;;;;9.38;7.03;;;29.90;81.30;;;;;;1836231;77;21076;-71
2022/03/29 08:38:47;;;;;;;12.47;7.28;;;30.00;81.80;;;;;;1822248;77;21147;-71
2022/03/29 08:41:19;;;;;;;11.22;7.83;;;30.10;81.20;;;;;;1819066;77;21150;-71
2022/03/29 08:43:50;;;;;;;9.28;7.60;;;30.10;81.40;;;;;;1819129;77;21119;-72
2022/03/29 08:46:22;;;;;;;11.05;7.03;;;30.20;81.00;;;;;;1809361;77;21135;-72
2022/03/29 08:48:53;;;;;;;9.85;7.12;;;30.20;81.40;;;;;;1815836;78;21205;-73
2022/03/29 08:51:25;;;;;;;7.85;6.67;;;30.20;81.30;;;;;;1815146;77;21193;-71
2022/03/29 08:53:57;;;;;;;8.33;7.08;;;30.20;80.70;;;;;;1816864;77;21267;-69
2022/03/29 08:56:28;;;;;;;9.83;6.83;;;30.20;80.90;;;;;;1815837;77;21154;-71
2022/03/29 08:58:59;;;;;;;7.22;6.12;;;30.20;79.00;;;;;;1811800;78;21127;-73
2022/03/29 09:01:30;;;;;;;6.60;5.67;;;30.20;78.80;;;;;;1807173;79;21187;-71
2022/03/29 09:04:04;;;;;;;9.50;6.85;;;30.10;79.50;;;;;;1828908;77;21705;-71
2022/03/29 09:06:36;;;;;;;9.93;7.28;;;30.10;79.60;;;;;;1810765;78;21146;-72
2022/03/29 09:09:09;;;;;;;9.73;7.20;;;30.00;80.40;;;;;;1816138;77;21519;-71
2022/03/29 09:11:41;;;;;;;7.28;6.47;;;30.00;80.80;;;;;;1817828;77;21575;-71
2022/03/29 09:14:12;;;;;;;9.95;6.92;;;30.00;80.60;;;;;;1825383;77;21111;-71
2022/03/29 09:16:43;;;;;;;10.28;6.78;;;29.90;80.10;;;;;;1819489;77;21618;-71
2022/03/29 09:19:15;;;;;;;8.48;6.70;;;29.90;80.20;;;;;;1819165;77;21661;-71
2022/03/29 09:21:47;;;;;;;9.60;7.83;;;29.80;80.60;;;;;;1817287;77;21193;-73
2022/03/29 09:24:20;;;;;;;8.58;7.25;;;29.80;80.80;;;;;;1821341;77;21171;-72
2022/03/29 09:26:55;;;;;;;11.18;6.72;;;29.80;81.50;;;;;;1800311;78;21551;-71
2022/03/29 09:29:26;;;;;;;7.65;6.65;;;29.80;82.00;;;;;;1828940;78;21116;-72
2022/03/29 09:31:59;;;;;;;11.57;6.87;;;29.80;81.80;;;;;;1823554;78;21197;-70
2022/03/29 09:34:31;;;;;;;11.12;7.53;;;29.70;82.60;;;;;;1807877;78;21631;-71
2022/03/29 09:37:04;;;;;;;10.68;7.20;;;29.60;83.10;;;;;;1801935;78;21240;-70
2022/03/29 09:39:36;;;;;;;13.35;7.45;;;29.60;83.70;;;;;;1797437;79;21200;-82
2022/03/29 09:42:08;;;;;;;9.13;7.35;;;29.50;84.30;;;;;;1782806;78;21159;-83
2022/03/29 09:44:42;;;;;;;10.45;7.37;;;29.50;84.40;;;;;;1794884;78;21065;-82
2022/03/29 09:47:15;;;;;;;15.00;7.78;;;29.50;85.50;;;;;;1791275;78;21151;-83
2022/03/29 09:49:49;;;;;;;7.80;7.00;;;29.50;84.50;;;;;;1798417;78;21084;-83
2022/03/29 09:52:22;;;;;;;9.55;6.30;;;29.50;83.90;;;;;;1791957;80;21120;-83
2022/03/29 09:54:56;;;;;;;12.70;6.70;;;29.50;82.90;;;;;;1808538;79;21102;-83
2022/03/29 09:57:29;;;;;;;12.55;7.15;;;29.50;82.00;;;;;;1804125;79;21222;-84
2022/03/29 10:00:00;;;;;;;10.08;7.33;;;29.50;82.20;;;;;;1801962;79;21166;-81
2022/03/29 10:02:34;;;;;;;8.53;7.40;;;29.50;82.60;;;;;;1798937;79;21622;-83
2022/03/29 10:05:05;;;;;;;8.35;6.80;;;29.50;82.80;;;;;;1801606;79;21207;-81
2022/03/29 10:07:39;;;;;;;10.98;7.25;;;29.40;84.10;;;;;;1801291;80;21118;-83
2022/03/29 10:10:11;;;;;;;8.60;7.05;;;29.40;83.40;;;;;;1801161;78;21632;-84
2022/03/29 10:12:42;;;;;;;10.53;7.00;;;29.40;83.70;;;;;;1797453;79;21211;-83
2022/03/29 10:15:15;;;;;;;8.38;7.37;;;29.40;84.10;;;;;;1802864;79;21201;-84
2022/03/29 10:17:46;;;;;;;9.73;7.62;;;29.40;84.50;;;;;;1807097;79;21158;-83
2022/03/29 10:20:17;;;;;;;12.55;7.83;;;29.30;84.60;;;;;;1808212;79;21161;-84
2022/03/29 10:22:48;;;;;;;9.68;7.03;;;29.30;84.70;;;;;;1804328;79;21222;-84
2022/03/29 10:25:19;;;;;;;8.75;6.78;;;29.30;84.80;;;;;;1801987;78;21158;-84
2022/03/29 10:27:51;;;;;;;15.58;7.03;;;29.30;84.90;;;;;;1765753;80;21222;-81
2022/03/29 10:30:26;;;;;;;10.78;6.75;;;29.30;84.70;;;;;;1765293;80;21182;-82
2022/03/29 10:33:03;;;;;;;11.50;6.92;;;29.20;84.50;;;;;;1765147;80;21124;-82
2022/03/29 10:35:34;;;;;;;8.95;6.35;;;29.20;84.60;;;;;;1770700;80;21178;-83
2022/03/29 10:38:05;;;;;;;8.63;6.30;;;29.20;84.60;;;;;;1774843;80;21701;-84
2022/03/29 10:40:41;;;;;;;11.15;6.95;;;29.10;84.20;;;;;;1769842;80;21160;-84
2022/03/29 10:43:15;;;;;;;10.68;6.87;;;29.20;84.30;;;;;;1763932;81;21221;-83
2022/03/29 10:46:01;;;;;;;7.90;6.60;;;29.10;84.20;;;;;;1761647;80;21162;-84
2022/03/29 10:48:28;;;;;;;8.05;7.22;;;29.10;84.40;;;;;;1762005;80;21088;-84
2022/03/29 10:51:00;;;;;;;9.88;8.35;;;29.10;84.60;;;;;;1766670;80;21159;-84
2022/03/29 10:53:46;;;;;;;10.18;7.55;;;29.10;84.70;;;;;;1762072;80;21555;-84
2022/03/29 10:56:24;;;;;;;9.58;6.97;;;29.10;84.90;;;;;;1768099;80;21167;-83
2022/03/29 10:58:57;;;;;;;8.43;6.53;;;29.10;85.10;;;;;;1769851;80;21186;-83
2022/03/29 11:01:28;;;;;;;9.10;6.83;;;29.10;85.20;;;;;;1773603;80;21168;-84
2022/03/29 11:04:02;;;;;;;10.60;8.13;;;29.10;85.40;;;;;;1744615;82;21083;-84
2022/03/29 11:06:36;;;;;;;14.58;8.68;;;29.10;85.50;;;;;;1765472;80;21099;-83
2022/03/29 11:09:09;;;;;;;10.25;7.22;;;29.00;85.60;;;;;;1773323;80;21226;-82
2022/03/29 11:11:46;;;;;;;10.58;7.22;;;29.00;85.70;;;;;;1771887;80;21591;-85
2022/03/29 11:14:18;;;;;;;11.15;7.67;;;29.00;85.70;;;;;;1754099;81;21233;-84
2022/03/29 11:16:56;;;;;;;16.52;8.83;;;29.00;85.90;;;;;;1759910;80;21094;-84
2022/03/29 11:19:29;;;;;;;16.57;8.65;;;29.00;86.00;;;;;;1770668;80;21630;-83
2022/03/29 11:22:01;;;;;;;11.33;7.90;;;29.00;86.90;;;;;;1766136;80;21096;-83
2022/03/29 11:24:34;;;;;;;8.93;7.42;;;29.00;86.10;;;;;;1750061;81;21107;-84
2022/03/29 11:27:05;;;;;;;12.18;7.87;;;29.00;86.20;;;;;;1795095;79;21579;-83
2022/03/29 11:29:39;;;;;;;10.70;7.47;;;29.00;86.20;;;;;;1808309;78;21280;-83
2022/03/29 11:32:12;;;;;;;13.80;7.33;;;29.00;86.50;;;;;;1807984;79;21551;-83
2022/03/29 11:34:44;;;;;;;12.00;7.60;;;29.00;86.70;;;;;;1772191;79;21167;-83
2022/03/29 11:37:17;;;;;;;11.70;7.53;;;28.90;86.70;;;;;;1769562;80;21084;-84
2022/03/29 11:39:50;;;;;;;13.30;9.20;;;28.90;87.00;;;;;;1788396;78;21060;-82
2022/03/29 11:42:21;;;;;;;12.50;9.48;;;28.90;87.50;;;;;;1806483;79;21251;-83
2022/03/29 11:44:53;;;;;;;11.73;9.23;;;28.90;87.90;;;;;;1807840;79;21166;-82
2022/03/29 11:47:24;;;;;;;13.58;11.05;;;28.90;87.30;;;;;;1806726;79;21237;-82
2022/03/29 11:49:54;;;;;;;10.95;9.18;;;28.90;87.40;;;;;;1803688;79;21123;-83
2022/03/29 11:52:28;;;;;;;11.63;8.78;;;28.90;87.80;;;;;;1804803;79;21213;-82
2022/03/29 11:54:59;;;;;;;12.23;8.83;;;28.90;87.90;;;;;;1806314;79;21147;-83
2022/03/29 11:57:32;;;;;;;12.07;8.75;;;28.80;88.20;;;;;;1771508;80;21124;-83
2022/03/29 12:00:04;;;;;;;12.40;9.15;;;28.80;88.80;;;;;;1796392;79;21104;-84
2022/03/29 12:02:37;;;;;;;11.30;8.88;;;28.80;88.60;;;;;;1796966;79;21243;-82
2022/03/29 12:05:10;;;;;;;10.85;8.53;;;28.80;88.80;;;;;;1808437;79;21076;-83
2022/03/29 12:07:44;;;;;;;13.25;9.15;;;28.80;89.00;;;;;;1795997;79;21080;-83
2022/03/29 12:10:17;;;;;;;11.63;8.65;;;28.80;89.30;;;;;;1800042;79;21160;-83
2022/03/29 12:12:50;;;;;;;12.78;9.13;;;28.70;90.00;;;;;;1793504;79;21155;-83
2022/03/29 12:15:22;;;;;;;12.90;9.20;;;28.70;89.40;;;;;;1798665;79;21126;-83
2022/03/29 12:20:31;;;;;;;11.70;9.33;;;28.70;89.90;;;;;;1787082;79;21678;-83
2022/03/29 12:23:02;;;;;;;14.30;9.85;;;28.70;90.00;;;;;;1796920;79;21090;-83
2022/03/29 12:25:33;;;;;;;14.87;10.13;;;28.70;90.10;;;;;;1794059;78;21605;-84
2022/03/29 12:28:05;;;;;;;14.87;10.75;;;28.60;90.10;;;;;;1804864;78;21189;-85
2022/03/29 12:30:40;;;;;;;12.98;9.90;;;28.60;90.20;;;;;;1801582;77;21633;-85
2022/03/29 12:33:11;;;;;;;16.70;10.65;;;28.60;90.30;;;;;;1807955;78;21622;-83
2022/03/29 12:35:42;;;;;;;13.93;11.20;;;28.60;90.40;;;;;;1818707;78;21547;-82
2022/03/29 12:38:14;;;;;;;13.98;10.35;;;28.60;90.50;;;;;;1802354;77;21649;-84
2022/03/29 12:40:47;;;;;;;15.65;11.30;;;28.50;90.70;;;;;;1808482;77;21235;-84
2022/03/29 12:43:19;;;;;;;15.85;11.22;;;28.50;90.80;;;;;;1804410;78;21080;-84
2022/03/29 12:45:50;;;;;;;13.95;10.75;;;28.50;90.80;;;;;;1803170;78;21146;-83
2022/03/29 12:48:24;;;;;;;13.50;10.10;;;28.50;91.00;;;;;;1812529;78;21661;-84
2022/03/29 12:50:54;;;;;;;13.35;10.72;;;28.50;91.10;;;;;;1828616;78;21136;-83
2022/03/29 12:53:25;;;;;;;13.15;10.68;;;28.50;91.10;;;;;;1831574;78;21162;-83
2022/03/29 12:55:59;;;;;;;14.83;10.98;;;28.50;91.20;;;;;;1819851;78;21190;-84
2022/03/29 12:58:34;;;;;;;16.02;10.78;;;28.50;91.10;;;;;;1802169;78;21230;-84
2022/03/29 13:01:07;;;;;;;13.40;10.48;;;28.40;91.20;;;;;;1806599;78;21297;-83
2022/03/29 13:03:40;;;;;;;14.33;10.72;;;28.40;91.30;;;;;;1802584;78;21171;-84
2022/03/29 13:06:11;;;;;;;13.85;10.93;;;28.40;91.40;;;;;;1808080;78;21183;-84
2022/03/29 13:08:42;;;;;;;17.02;11.30;;;28.40;91.40;;;;;;1786838;79;21178;-84
2022/03/29 13:11:18;;;;;;;16.00;11.25;;;28.40;91.50;;;;;;1809693;78;21257;-83